Airport View

Enter AWOS ICAO identifier for current METAR.

ex. KFNL

KLUD 120615Z AUTO 15008KT 7SM CLR 05/01 A3034 RMK AO2 T00500013

12 Dec 2019 06:23

Frequency: 118.225

Phone: 940-627-2365

Other Area AWOS: KXBP - KDTO - KAFW - K0F2

TAF KAFW 120520Z 1206/1306 16008KT P6SM BKN300